sensor_id;sensor_type;location;lat;lon;timestamp;P1;durP1;ratioP1;P2;durP2;ratioP2
74660;SDS011;63191;39.566;2.654;2022-09-09T00:00:54;5.40;;;2.20;;
74660;SDS011;63191;39.566;2.654;2022-09-09T00:03:35;9.20;;;2.10;;
74660;SDS011;63191;39.566;2.654;2022-09-09T00:06:42;7.80;;;2.00;;
74660;SDS011;63191;39.566;2.654;2022-09-09T00:09:13;8.20;;;1.70;;
74660;SDS011;63191;39.566;2.654;2022-09-09T00:11:51;7.40;;;2.00;;
74660;SDS011;63191;39.566;2.654;2022-09-09T00:14:30;7.90;;;2.10;;
74660;SDS011;63191;39.566;2.654;2022-09-09T00:17:19;6.60;;;1.70;;
74660;SDS011;63191;39.566;2.654;2022-09-09T00:23:17;5.50;;;1.80;;
74660;SDS011;63191;39.566;2.654;2022-09-09T00:28:25;6.30;;;1.70;;
74660;SDS011;63191;39.566;2.654;2022-09-09T00:30:52;8.30;;;1.70;;
74660;SDS011;63191;39.566;2.654;2022-09-09T00:33:24;7.50;;;1.80;;
74660;SDS011;63191;39.566;2.654;2022-09-09T00:35:53;6.00;;;1.90;;
74660;SDS011;63191;39.566;2.654;2022-09-09T00:38:27;6.30;;;1.70;;
74660;SDS011;63191;39.566;2.654;2022-09-09T00:41:50;7.20;;;1.90;;
74660;SDS011;63191;39.566;2.654;2022-09-09T00:44:39;7.90;;;2.20;;
74660;SDS011;63191;39.566;2.654;2022-09-09T00:47:55;5.40;;;2.20;;
74660;SDS011;63191;39.566;2.654;2022-09-09T00:50:31;7.60;;;1.90;;
74660;SDS011;63191;39.566;2.654;2022-09-09T00:54:30;8.00;;;1.90;;
74660;SDS011;63191;39.566;2.654;2022-09-09T00:56:55;8.50;;;2.00;;
74660;SDS011;63191;39.566;2.654;2022-09-09T00:59:48;6.20;;;2.00;;
74660;SDS011;63191;39.566;2.654;2022-09-09T01:02:27;6.90;;;1.90;;
74660;SDS011;63191;39.566;2.654;2022-09-09T01:05:33;4.80;;;1.60;;
74660;SDS011;63191;39.566;2.654;2022-09-09T01:11:25;7.70;;;2.00;;
74660;SDS011;63191;39.566;2.654;2022-09-09T01:13:58;7.70;;;2.10;;
74660;SDS011;63191;39.566;2.654;2022-09-09T01:16:45;8.20;;;2.10;;
74660;SDS011;63191;39.566;2.654;2022-09-09T01:19:19;5.90;;;1.90;;
74660;SDS011;63191;39.566;2.654;2022-09-09T01:25:20;9.10;;;2.10;;
74660;SDS011;63191;39.566;2.654;2022-09-09T01:27:58;6.50;;;1.70;;
74660;SDS011;63191;39.566;2.654;2022-09-09T01:30:28;6.20;;;2.00;;
74660;SDS011;63191;39.566;2.654;2022-09-09T01:32:56;6.90;;;2.00;;
74660;SDS011;63191;39.566;2.654;2022-09-09T01:37:57;7.50;;;2.30;;
74660;SDS011;63191;39.566;2.654;2022-09-09T01:40:24;9.50;;;2.40;;
74660;SDS011;63191;39.566;2.654;2022-09-09T01:42:51;6.70;;;2.10;;
74660;SDS011;63191;39.566;2.654;2022-09-09T01:45:17;8.50;;;2.30;;
74660;SDS011;63191;39.566;2.654;2022-09-09T01:47:44;8.60;;;2.20;;
74660;SDS011;63191;39.566;2.654;2022-09-09T01:50:12;7.30;;;1.90;;
74660;SDS011;63191;39.566;2.654;2022-09-09T01:52:40;6.00;;;2.30;;
74660;SDS011;63191;39.566;2.654;2022-09-09T01:55:06;8.70;;;2.30;;
74660;SDS011;63191;39.566;2.654;2022-09-09T02:01:06;7.30;;;2.30;;
74660;SDS011;63191;39.566;2.654;2022-09-09T02:03:36;7.00;;;2.10;;
74660;SDS011;63191;39.566;2.654;2022-09-09T02:08:50;8.40;;;2.20;;
74660;SDS011;63191;39.566;2.654;2022-09-09T02:11:20;6.80;;;2.30;;
74660;SDS011;63191;39.566;2.654;2022-09-09T02:13:49;7.40;;;2.30;;
74660;SDS011;63191;39.566;2.654;2022-09-09T02:16:23;7.30;;;2.30;;
74660;SDS011;63191;39.566;2.654;2022-09-09T02:19:10;6.60;;;2.20;;
74660;SDS011;63191;39.566;2.654;2022-09-09T02:21:39;7.20;;;2.30;;
74660;SDS011;63191;39.566;2.654;2022-09-09T02:24:08;7.90;;;2.20;;
74660;SDS011;63191;39.566;2.654;2022-09-09T02:26:39;6.80;;;2.00;;
74660;SDS011;63191;39.566;2.654;2022-09-09T02:29:09;5.60;;;2.40;;
74660;SDS011;63191;39.566;2.654;2022-09-09T02:31:41;7.50;;;2.10;;
74660;SDS011;63191;39.566;2.654;2022-09-09T02:34:09;5.80;;;1.90;;
74660;SDS011;63191;39.566;2.654;2022-09-09T02:36:36;7.40;;;2.30;;
74660;SDS011;63191;39.566;2.654;2022-09-09T02:39:07;4.90;;;1.90;;
74660;SDS011;63191;39.566;2.654;2022-09-09T02:41:36;5.70;;;2.10;;
74660;SDS011;63191;39.566;2.654;2022-09-09T02:44:14;7.50;;;1.80;;
74660;SDS011;63191;39.566;2.654;2022-09-09T02:55:49;6.70;;;2.30;;
74660;SDS011;63191;39.566;2.654;2022-09-09T02:58:45;5.80;;;2.00;;
74660;SDS011;63191;39.566;2.654;2022-09-09T03:01:12;5.50;;;1.90;;
74660;SDS011;63191;39.566;2.654;2022-09-09T03:03:38;5.80;;;1.90;;
74660;SDS011;63191;39.566;2.654;2022-09-09T03:06:05;7.20;;;2.00;;
74660;SDS011;63191;39.566;2.654;2022-09-09T03:08:31;7.70;;;2.40;;
74660;SDS011;63191;39.566;2.654;2022-09-09T03:10:58;7.20;;;2.30;;
74660;SDS011;63191;39.566;2.654;2022-09-09T03:13:26;7.00;;;2.20;;
74660;SDS011;63191;39.566;2.654;2022-09-09T03:15:52;5.60;;;1.80;;
74660;SDS011;63191;39.566;2.654;2022-09-09T03:18:18;6.40;;;1.90;;
74660;SDS011;63191;39.566;2.654;2022-09-09T03:20:46;7.00;;;2.00;;
74660;SDS011;63191;39.566;2.654;2022-09-09T03:23:14;6.30;;;1.90;;
74660;SDS011;63191;39.566;2.654;2022-09-09T03:25:46;5.80;;;2.00;;
74660;SDS011;63191;39.566;2.654;2022-09-09T03:28:13;6.90;;;2.00;;
74660;SDS011;63191;39.566;2.654;2022-09-09T03:30:39;9.80;;;2.30;;
74660;SDS011;63191;39.566;2.654;2022-09-09T03:33:05;6.10;;;1.90;;
74660;SDS011;63191;39.566;2.654;2022-09-09T03:35:30;8.20;;;1.80;;
74660;SDS011;63191;39.566;2.654;2022-09-09T03:37:56;7.60;;;2.60;;
74660;SDS011;63191;39.566;2.654;2022-09-09T03:40:22;7.20;;;1.90;;
74660;SDS011;63191;39.566;2.654;2022-09-09T03:42:47;7.10;;;1.90;;
74660;SDS011;63191;39.566;2.654;2022-09-09T03:45:13;7.70;;;2.30;;
74660;SDS011;63191;39.566;2.654;2022-09-09T03:47:40;7.70;;;2.30;;
74660;SDS011;63191;39.566;2.654;2022-09-09T03:50:07;6.90;;;1.90;;
74660;SDS011;63191;39.566;2.654;2022-09-09T03:52:39;8.50;;;2.40;;
74660;SDS011;63191;39.566;2.654;2022-09-09T03:55:07;7.40;;;2.10;;
74660;SDS011;63191;39.566;2.654;2022-09-09T03:57:34;6.10;;;2.30;;
74660;SDS011;63191;39.566;2.654;2022-09-09T04:00:05;8.00;;;2.30;;
74660;SDS011;63191;39.566;2.654;2022-09-09T04:02:32;8.40;;;2.60;;
74660;SDS011;63191;39.566;2.654;2022-09-09T04:04:58;5.20;;;2.00;;
74660;SDS011;63191;39.566;2.654;2022-09-09T04:07:25;8.40;;;2.20;;
74660;SDS011;63191;39.566;2.654;2022-09-09T04:09:52;7.20;;;2.10;;
74660;SDS011;63191;39.566;2.654;2022-09-09T04:12:19;6.80;;;2.00;;
74660;SDS011;63191;39.566;2.654;2022-09-09T04:14:46;8.40;;;2.20;;
74660;SDS011;63191;39.566;2.654;2022-09-09T04:17:11;9.50;;;2.20;;
74660;SDS011;63191;39.566;2.654;2022-09-09T04:19:37;6.70;;;2.50;;
74660;SDS011;63191;39.566;2.654;2022-09-09T04:22:03;6.40;;;1.90;;
74660;SDS011;63191;39.566;2.654;2022-09-09T04:24:29;7.40;;;1.80;;
74660;SDS011;63191;39.566;2.654;2022-09-09T04:26:55;6.60;;;1.80;;
74660;SDS011;63191;39.566;2.654;2022-09-09T04:29:22;8.10;;;2.50;;
74660;SDS011;63191;39.566;2.654;2022-09-09T04:31:48;8.40;;;2.20;;
74660;SDS011;63191;39.566;2.654;2022-09-09T04:34:13;8.00;;;2.50;;
74660;SDS011;63191;39.566;2.654;2022-09-09T04:36:39;9.70;;;2.40;;
74660;SDS011;63191;39.566;2.654;2022-09-09T04:39:06;7.90;;;2.50;;
74660;SDS011;63191;39.566;2.654;2022-09-09T04:41:32;8.30;;;2.70;;
74660;SDS011;63191;39.566;2.654;2022-09-09T04:43:58;8.50;;;2.10;;
74660;SDS011;63191;39.566;2.654;2022-09-09T04:46:26;6.90;;;2.40;;
74660;SDS011;63191;39.566;2.654;2022-09-09T04:48:51;7.50;;;2.30;;
74660;SDS011;63191;39.566;2.654;2022-09-09T04:51:18;7.40;;;2.60;;
74660;SDS011;63191;39.566;2.654;2022-09-09T04:53:44;10.10;;;2.50;;
74660;SDS011;63191;39.566;2.654;2022-09-09T04:56:16;5.40;;;2.10;;
74660;SDS011;63191;39.566;2.654;2022-09-09T04:58:43;7.90;;;2.60;;
74660;SDS011;63191;39.566;2.654;2022-09-09T05:01:17;10.60;;;2.30;;
74660;SDS011;63191;39.566;2.654;2022-09-09T05:03:45;9.60;;;2.50;;
74660;SDS011;63191;39.566;2.654;2022-09-09T05:06:13;8.20;;;2.40;;
74660;SDS011;63191;39.566;2.654;2022-09-09T05:08:42;7.00;;;2.40;;
74660;SDS011;63191;39.566;2.654;2022-09-09T05:11:20;7.50;;;2.80;;
74660;SDS011;63191;39.566;2.654;2022-09-09T05:13:52;10.00;;;2.70;;
74660;SDS011;63191;39.566;2.654;2022-09-09T05:16:19;10.10;;;2.50;;
74660;SDS011;63191;39.566;2.654;2022-09-09T05:18:46;6.20;;;2.30;;
74660;SDS011;63191;39.566;2.654;2022-09-09T05:21:15;8.00;;;2.40;;
74660;SDS011;63191;39.566;2.654;2022-09-09T05:23:41;7.50;;;2.60;;
74660;SDS011;63191;39.566;2.654;2022-09-09T05:26:11;8.20;;;2.60;;
74660;SDS011;63191;39.566;2.654;2022-09-09T05:28:39;7.80;;;2.70;;
74660;SDS011;63191;39.566;2.654;2022-09-09T05:31:07;10.60;;;2.80;;
74660;SDS011;63191;39.566;2.654;2022-09-09T05:33:35;8.50;;;2.50;;
74660;SDS011;63191;39.566;2.654;2022-09-09T05:36:07;7.40;;;2.70;;
74660;SDS011;63191;39.566;2.654;2022-09-09T05:38:37;8.90;;;2.50;;
74660;SDS011;63191;39.566;2.654;2022-09-09T05:41:04;8.70;;;2.60;;
74660;SDS011;63191;39.566;2.654;2022-09-09T05:43:32;8.00;;;2.80;;
74660;SDS011;63191;39.566;2.654;2022-09-09T05:46:08;8.30;;;2.80;;
74660;SDS011;63191;39.566;2.654;2022-09-09T05:48:40;7.80;;;2.90;;
74660;SDS011;63191;39.566;2.654;2022-09-09T05:51:10;8.60;;;2.80;;
74660;SDS011;63191;39.566;2.654;2022-09-09T05:53:41;10.40;;;3.40;;
74660;SDS011;63191;39.566;2.654;2022-09-09T05:56:13;9.10;;;2.50;;
74660;SDS011;63191;39.566;2.654;2022-09-09T05:58:40;9.80;;;2.30;;
74660;SDS011;63191;39.566;2.654;2022-09-09T06:01:11;11.70;;;2.90;;
74660;SDS011;63191;39.566;2.654;2022-09-09T06:03:41;7.70;;;2.50;;
74660;SDS011;63191;39.566;2.654;2022-09-09T06:06:10;9.80;;;3.00;;
74660;SDS011;63191;39.566;2.654;2022-09-09T06:08:39;8.10;;;2.60;;
74660;SDS011;63191;39.566;2.654;2022-09-09T06:13:42;8.00;;;2.90;;
74660;SDS011;63191;39.566;2.654;2022-09-09T06:16:12;10.60;;;3.00;;
74660;SDS011;63191;39.566;2.654;2022-09-09T06:18:40;7.40;;;2.60;;
74660;SDS011;63191;39.566;2.654;2022-09-09T06:21:13;9.50;;;3.00;;
74660;SDS011;63191;39.566;2.654;2022-09-09T06:23:41;8.50;;;2.80;;
74660;SDS011;63191;39.566;2.654;2022-09-09T06:26:14;16.10;;;7.40;;
74660;SDS011;63191;39.566;2.654;2022-09-09T06:28:46;12.60;;;5.80;;
74660;SDS011;63191;39.566;2.654;2022-09-09T06:31:14;10.30;;;4.20;;
74660;SDS011;63191;39.566;2.654;2022-09-09T06:33:47;9.50;;;3.30;;
74660;SDS011;63191;39.566;2.654;2022-09-09T06:36:23;10.70;;;3.20;;
74660;SDS011;63191;39.566;2.654;2022-09-09T06:38:56;13.70;;;3.50;;
74660;SDS011;63191;39.566;2.654;2022-09-09T06:41:26;9.50;;;3.70;;
74660;SDS011;63191;39.566;2.654;2022-09-09T06:43:53;12.60;;;4.50;;
74660;SDS011;63191;39.566;2.654;2022-09-09T06:46:25;14.20;;;4.20;;
74660;SDS011;63191;39.566;2.654;2022-09-09T06:48:53;8.90;;;4.30;;
74660;SDS011;63191;39.566;2.654;2022-09-09T06:51:33;9.70;;;4.60;;
74660;SDS011;63191;39.566;2.654;2022-09-09T06:54:01;10.50;;;5.00;;
74660;SDS011;63191;39.566;2.654;2022-09-09T06:56:32;12.30;;;4.60;;
74660;SDS011;63191;39.566;2.654;2022-09-09T06:59:04;13.20;;;5.30;;
74660;SDS011;63191;39.566;2.654;2022-09-09T07:01:33;13.40;;;5.00;;
74660;SDS011;63191;39.566;2.654;2022-09-09T07:04:04;12.50;;;4.80;;
74660;SDS011;63191;39.566;2.654;2022-09-09T07:06:35;11.00;;;5.30;;
74660;SDS011;63191;39.566;2.654;2022-09-09T07:09:04;14.00;;;5.90;;
74660;SDS011;63191;39.566;2.654;2022-09-09T07:11:34;14.10;;;6.00;;
74660;SDS011;63191;39.566;2.654;2022-09-09T07:14:04;14.20;;;5.90;;
74660;SDS011;63191;39.566;2.654;2022-09-09T07:16:29;10.30;;;6.10;;
74660;SDS011;63191;39.566;2.654;2022-09-09T07:18:58;12.20;;;6.50;;
74660;SDS011;63191;39.566;2.654;2022-09-09T07:21:26;13.40;;;6.70;;
74660;SDS011;63191;39.566;2.654;2022-09-09T07:23:54;13.90;;;7.20;;
74660;SDS011;63191;39.566;2.654;2022-09-09T07:26:25;12.90;;;6.80;;
74660;SDS011;63191;39.566;2.654;2022-09-09T07:28:53;15.20;;;6.20;;
74660;SDS011;63191;39.566;2.654;2022-09-09T07:31:22;18.50;;;5.70;;
74660;SDS011;63191;39.566;2.654;2022-09-09T07:33:50;14.00;;;6.30;;
74660;SDS011;63191;39.566;2.654;2022-09-09T07:38:50;8.70;;;4.70;;
74660;SDS011;63191;39.566;2.654;2022-09-09T07:41:24;14.50;;;4.80;;
74660;SDS011;63191;39.566;2.654;2022-09-09T07:44:15;13.60;;;4.60;;
74660;SDS011;63191;39.566;2.654;2022-09-09T07:46:44;10.20;;;3.90;;
74660;SDS011;63191;39.566;2.654;2022-09-09T07:49:12;11.10;;;4.30;;
74660;SDS011;63191;39.566;2.654;2022-09-09T07:51:41;11.10;;;3.80;;
74660;SDS011;63191;39.566;2.654;2022-09-09T07:54:11;11.10;;;3.80;;
74660;SDS011;63191;39.566;2.654;2022-09-09T07:56:39;8.50;;;3.80;;
74660;SDS011;63191;39.566;2.654;2022-09-09T07:59:06;8.20;;;3.20;;
74660;SDS011;63191;39.566;2.654;2022-09-09T08:01:38;8.20;;;3.10;;
74660;SDS011;63191;39.566;2.654;2022-09-09T08:04:17;8.60;;;3.30;;
74660;SDS011;63191;39.566;2.654;2022-09-09T08:06:47;9.00;;;3.30;;
74660;SDS011;63191;39.566;2.654;2022-09-09T08:09:18;7.00;;;3.20;;
74660;SDS011;63191;39.566;2.654;2022-09-09T08:11:45;7.60;;;3.10;;
74660;SDS011;63191;39.566;2.654;2022-09-09T08:14:12;8.10;;;2.90;;
74660;SDS011;63191;39.566;2.654;2022-09-09T08:16:41;10.30;;;3.50;;
74660;SDS011;63191;39.566;2.654;2022-09-09T08:19:09;8.80;;;3.20;;
74660;SDS011;63191;39.566;2.654;2022-09-09T08:21:38;11.80;;;3.40;;
74660;SDS011;63191;39.566;2.654;2022-09-09T08:24:06;7.30;;;3.40;;
74660;SDS011;63191;39.566;2.654;2022-09-09T08:26:35;7.30;;;3.20;;
74660;SDS011;63191;39.566;2.654;2022-09-09T08:29:05;7.60;;;3.60;;
74660;SDS011;63191;39.566;2.654;2022-09-09T08:31:40;7.60;;;3.10;;
74660;SDS011;63191;39.566;2.654;2022-09-09T08:34:13;7.50;;;3.40;;
74660;SDS011;63191;39.566;2.654;2022-09-09T08:36:42;8.60;;;3.30;;
74660;SDS011;63191;39.566;2.654;2022-09-09T08:39:11;8.20;;;3.30;;
74660;SDS011;63191;39.566;2.654;2022-09-09T08:47:10;7.60;;;3.40;;
74660;SDS011;63191;39.566;2.654;2022-09-09T08:53:14;10.90;;;3.00;;
74660;SDS011;63191;39.566;2.654;2022-09-09T08:55:51;8.70;;;3.40;;
74660;SDS011;63191;39.566;2.654;2022-09-09T09:03:48;10.10;;;3.40;;
74660;SDS011;63191;39.566;2.654;2022-09-09T09:11:52;6.90;;;3.10;;
74660;SDS011;63191;39.566;2.654;2022-09-09T09:14:23;6.30;;;2.90;;
74660;SDS011;63191;39.566;2.654;2022-09-09T09:17:06;7.50;;;3.10;;
74660;SDS011;63191;39.566;2.654;2022-09-09T09:19:39;6.40;;;2.50;;
74660;SDS011;63191;39.566;2.654;2022-09-09T09:22:30;6.10;;;2.70;;
74660;SDS011;63191;39.566;2.654;2022-09-09T09:27:52;4.70;;;2.10;;
74660;SDS011;63191;39.566;2.654;2022-09-09T09:30:35;6.10;;;2.40;;
74660;SDS011;63191;39.566;2.654;2022-09-09T09:33:30;6.30;;;2.90;;
74660;SDS011;63191;39.566;2.654;2022-09-09T09:36:02;6.20;;;2.70;;
74660;SDS011;63191;39.566;2.654;2022-09-09T09:38:28;5.90;;;2.40;;
74660;SDS011;63191;39.566;2.654;2022-09-09T09:40:58;7.10;;;2.70;;
74660;SDS011;63191;39.566;2.654;2022-09-09T09:43:35;5.90;;;2.50;;
74660;SDS011;63191;39.566;2.654;2022-09-09T09:46:16;9.30;;;5.10;;
74660;SDS011;63191;39.566;2.654;2022-09-09T09:49:01;5.80;;;2.50;;
74660;SDS011;63191;39.566;2.654;2022-09-09T09:51:31;5.30;;;2.40;;
74660;SDS011;63191;39.566;2.654;2022-09-09T09:56:39;5.00;;;2.50;;
74660;SDS011;63191;39.566;2.654;2022-09-09T09:59:20;7.20;;;2.40;;
74660;SDS011;63191;39.566;2.654;2022-09-09T10:01:47;7.30;;;3.10;;
74660;SDS011;63191;39.566;2.654;2022-09-09T10:04:16;9.20;;;2.60;;
74660;SDS011;63191;39.566;2.654;2022-09-09T10:06:49;5.80;;;2.30;;
74660;SDS011;63191;39.566;2.654;2022-09-09T10:09:30;7.50;;;2.40;;
74660;SDS011;63191;39.566;2.654;2022-09-09T10:15:11;8.20;;;2.40;;
74660;SDS011;63191;39.566;2.654;2022-09-09T10:26:44;4.90;;;2.30;;
74660;SDS011;63191;39.566;2.654;2022-09-09T10:32:56;7.30;;;2.50;;
74660;SDS011;63191;39.566;2.654;2022-09-09T10:35:52;6.40;;;2.20;;
74660;SDS011;63191;39.566;2.654;2022-09-09T10:38:46;5.30;;;2.30;;
74660;SDS011;63191;39.566;2.654;2022-09-09T10:45:17;6.90;;;2.50;;
74660;SDS011;63191;39.566;2.654;2022-09-09T10:47:51;5.50;;;2.70;;
74660;SDS011;63191;39.566;2.654;2022-09-09T10:53:53;5.70;;;2.30;;
74660;SDS011;63191;39.566;2.654;2022-09-09T10:56:42;6.30;;;2.40;;
74660;SDS011;63191;39.566;2.654;2022-09-09T10:59:19;5.70;;;2.50;;
74660;SDS011;63191;39.566;2.654;2022-09-09T11:01:58;5.80;;;2.30;;
74660;SDS011;63191;39.566;2.654;2022-09-09T11:04:48;5.70;;;2.10;;
74660;SDS011;63191;39.566;2.654;2022-09-09T11:07:28;6.40;;;2.20;;
74660;SDS011;63191;39.566;2.654;2022-09-09T11:10:02;4.60;;;2.00;;
74660;SDS011;63191;39.566;2.654;2022-09-09T11:12:36;6.00;;;2.40;;
74660;SDS011;63191;39.566;2.654;2022-09-09T11:15:08;5.10;;;2.10;;
74660;SDS011;63191;39.566;2.654;2022-09-09T11:17:50;6.30;;;2.20;;
74660;SDS011;63191;39.566;2.654;2022-09-09T11:20:20;6.20;;;2.30;;
74660;SDS011;63191;39.566;2.654;2022-09-09T11:22:53;5.10;;;2.00;;
74660;SDS011;63191;39.566;2.654;2022-09-09T11:25:49;5.40;;;2.20;;
74660;SDS011;63191;39.566;2.654;2022-09-09T11:31:44;5.70;;;1.80;;
74660;SDS011;63191;39.566;2.654;2022-09-09T11:42:23;5.30;;;2.30;;
74660;SDS011;63191;39.566;2.654;2022-09-09T11:44:50;6.90;;;2.60;;
74660;SDS011;63191;39.566;2.654;2022-09-09T11:47:29;7.00;;;3.20;;
74660;SDS011;63191;39.566;2.654;2022-09-09T11:52:43;7.10;;;3.60;;
74660;SDS011;63191;39.566;2.654;2022-09-09T11:58:24;6.60;;;3.80;;
74660;SDS011;63191;39.566;2.654;2022-09-09T12:00:50;6.90;;;3.30;;
74660;SDS011;63191;39.566;2.654;2022-09-09T12:09:08;7.20;;;3.00;;
74660;SDS011;63191;39.566;2.654;2022-09-09T12:11:40;6.20;;;3.00;;
74660;SDS011;63191;39.566;2.654;2022-09-09T12:14:20;4.90;;;2.90;;
74660;SDS011;63191;39.566;2.654;2022-09-09T12:16:47;7.10;;;3.50;;
74660;SDS011;63191;39.566;2.654;2022-09-09T12:19:21;7.20;;;3.20;;
74660;SDS011;63191;39.566;2.654;2022-09-09T12:22:07;7.00;;;3.10;;
74660;SDS011;63191;39.566;2.654;2022-09-09T12:25:16;5.60;;;2.50;;
74660;SDS011;63191;39.566;2.654;2022-09-09T12:27:51;5.60;;;2.80;;
74660;SDS011;63191;39.566;2.654;2022-09-09T12:30:58;4.40;;;2.60;;
74660;SDS011;63191;39.566;2.654;2022-09-09T12:33:37;6.60;;;2.20;;
74660;SDS011;63191;39.566;2.654;2022-09-09T12:36:12;5.30;;;2.20;;
74660;SDS011;63191;39.566;2.654;2022-09-09T12:38:42;6.20;;;2.60;;
74660;SDS011;63191;39.566;2.654;2022-09-09T12:41:23;5.10;;;2.20;;
74660;SDS011;63191;39.566;2.654;2022-09-09T12:43:51;7.70;;;2.00;;
74660;SDS011;63191;39.566;2.654;2022-09-09T12:47:04;10.00;;;2.60;;
74660;SDS011;63191;39.566;2.654;2022-09-09T12:49:34;4.50;;;2.10;;
74660;SDS011;63191;39.566;2.654;2022-09-09T12:52:06;6.00;;;2.10;;
74660;SDS011;63191;39.566;2.654;2022-09-09T12:54:36;5.50;;;2.30;;
74660;SDS011;63191;39.566;2.654;2022-09-09T12:57:04;6.10;;;1.90;;
74660;SDS011;63191;39.566;2.654;2022-09-09T12:59:39;5.90;;;2.00;;
74660;SDS011;63191;39.566;2.654;2022-09-09T13:02:22;7.90;;;2.50;;
74660;SDS011;63191;39.566;2.654;2022-09-09T13:04:49;5.20;;;2.40;;
74660;SDS011;63191;39.566;2.654;2022-09-09T13:07:17;5.90;;;2.10;;
74660;SDS011;63191;39.566;2.654;2022-09-09T13:09:45;5.80;;;2.20;;
74660;SDS011;63191;39.566;2.654;2022-09-09T13:12:21;6.10;;;2.20;;
74660;SDS011;63191;39.566;2.654;2022-09-09T13:14:55;5.00;;;2.00;;
74660;SDS011;63191;39.566;2.654;2022-09-09T13:17:24;5.10;;;2.10;;
74660;SDS011;63191;39.566;2.654;2022-09-09T13:19:53;4.90;;;2.10;;
74660;SDS011;63191;39.566;2.654;2022-09-09T13:22:47;9.30;;;2.40;;
74660;SDS011;63191;39.566;2.654;2022-09-09T13:25:19;6.00;;;1.80;;
74660;SDS011;63191;39.566;2.654;2022-09-09T13:27:59;4.60;;;1.80;;
74660;SDS011;63191;39.566;2.654;2022-09-09T13:30:34;6.60;;;2.30;;
74660;SDS011;63191;39.566;2.654;2022-09-09T13:35:54;9.40;;;2.40;;
74660;SDS011;63191;39.566;2.654;2022-09-09T13:38:21;5.80;;;2.00;;
74660;SDS011;63191;39.566;2.654;2022-09-09T13:41:02;4.30;;;1.80;;
74660;SDS011;63191;39.566;2.654;2022-09-09T13:43:43;5.60;;;2.00;;
74660;SDS011;63191;39.566;2.654;2022-09-09T13:46:26;5.20;;;2.20;;
74660;SDS011;63191;39.566;2.654;2022-09-09T13:54:06;5.10;;;1.90;;
74660;SDS011;63191;39.566;2.654;2022-09-09T13:56:36;5.10;;;2.20;;
74660;SDS011;63191;39.566;2.654;2022-09-09T13:59:06;5.10;;;1.90;;
74660;SDS011;63191;39.566;2.654;2022-09-09T14:01:36;3.60;;;1.80;;
74660;SDS011;63191;39.566;2.654;2022-09-09T14:04:03;5.70;;;2.10;;
74660;SDS011;63191;39.566;2.654;2022-09-09T14:06:31;4.20;;;1.70;;
74660;SDS011;63191;39.566;2.654;2022-09-09T14:08:58;4.60;;;1.70;;
74660;SDS011;63191;39.566;2.654;2022-09-09T14:11:24;7.60;;;2.20;;
74660;SDS011;63191;39.566;2.654;2022-09-09T14:13:50;5.80;;;1.80;;
74660;SDS011;63191;39.566;2.654;2022-09-09T14:16:17;4.70;;;1.70;;
74660;SDS011;63191;39.566;2.654;2022-09-09T14:18:44;5.80;;;1.80;;
74660;SDS011;63191;39.566;2.654;2022-09-09T14:21:10;6.30;;;1.80;;
74660;SDS011;63191;39.566;2.654;2022-09-09T14:23:37;4.70;;;2.00;;
74660;SDS011;63191;39.566;2.654;2022-09-09T14:26:04;8.00;;;2.30;;
74660;SDS011;63191;39.566;2.654;2022-09-09T14:28:31;5.70;;;1.90;;
74660;SDS011;63191;39.566;2.654;2022-09-09T14:31:03;4.70;;;1.90;;
74660;SDS011;63191;39.566;2.654;2022-09-09T14:33:30;5.60;;;1.80;;
74660;SDS011;63191;39.566;2.654;2022-09-09T14:36:01;6.00;;;1.90;;
74660;SDS011;63191;39.566;2.654;2022-09-09T14:38:30;4.70;;;1.70;;
74660;SDS011;63191;39.566;2.654;2022-09-09T14:40:59;7.10;;;1.90;;
74660;SDS011;63191;39.566;2.654;2022-09-09T14:43:28;7.40;;;1.90;;
74660;SDS011;63191;39.566;2.654;2022-09-09T14:45:55;4.90;;;1.80;;
74660;SDS011;63191;39.566;2.654;2022-09-09T14:48:21;6.80;;;1.60;;
74660;SDS011;63191;39.566;2.654;2022-09-09T14:50:47;3.80;;;1.70;;
74660;SDS011;63191;39.566;2.654;2022-09-09T14:53:13;8.10;;;1.90;;
74660;SDS011;63191;39.566;2.654;2022-09-09T14:55:42;5.90;;;2.00;;
74660;SDS011;63191;39.566;2.654;2022-09-09T14:58:08;4.90;;;1.70;;
74660;SDS011;63191;39.566;2.654;2022-09-09T15:00:33;5.70;;;2.10;;
74660;SDS011;63191;39.566;2.654;2022-09-09T15:02:59;6.50;;;2.00;;
74660;SDS011;63191;39.566;2.654;2022-09-09T15:05:25;6.70;;;2.10;;
74660;SDS011;63191;39.566;2.654;2022-09-09T15:07:50;4.60;;;1.90;;
74660;SDS011;63191;39.566;2.654;2022-09-09T15:10:17;5.50;;;1.80;;
74660;SDS011;63191;39.566;2.654;2022-09-09T15:12:43;5.00;;;1.70;;
74660;SDS011;63191;39.566;2.654;2022-09-09T15:15:10;6.20;;;1.90;;
74660;SDS011;63191;39.566;2.654;2022-09-09T15:17:37;7.20;;;1.80;;
74660;SDS011;63191;39.566;2.654;2022-09-09T15:20:04;6.30;;;2.20;;
74660;SDS011;63191;39.566;2.654;2022-09-09T15:22:31;5.30;;;1.90;;
74660;SDS011;63191;39.566;2.654;2022-09-09T15:24:57;4.90;;;1.80;;
74660;SDS011;63191;39.566;2.654;2022-09-09T15:27:23;5.40;;;2.00;;
74660;SDS011;63191;39.566;2.654;2022-09-09T15:29:49;5.90;;;2.20;;
74660;SDS011;63191;39.566;2.654;2022-09-09T15:32:17;6.90;;;2.50;;
74660;SDS011;63191;39.566;2.654;2022-09-09T15:34:43;8.10;;;2.20;;
74660;SDS011;63191;39.566;2.654;2022-09-09T15:37:12;8.20;;;2.20;;
74660;SDS011;63191;39.566;2.654;2022-09-09T15:39:39;7.80;;;2.60;;
74660;SDS011;63191;39.566;2.654;2022-09-09T15:42:06;7.10;;;2.10;;
74660;SDS011;63191;39.566;2.654;2022-09-09T15:44:43;7.10;;;2.00;;
74660;SDS011;63191;39.566;2.654;2022-09-09T15:47:12;6.50;;;2.10;;
74660;SDS011;63191;39.566;2.654;2022-09-09T15:49:38;7.10;;;2.00;;
74660;SDS011;63191;39.566;2.654;2022-09-09T15:52:04;7.20;;;2.20;;
74660;SDS011;63191;39.566;2.654;2022-09-09T15:54:36;5.90;;;2.40;;
74660;SDS011;63191;39.566;2.654;2022-09-09T15:57:07;5.00;;;2.10;;
74660;SDS011;63191;39.566;2.654;2022-09-09T15:59:35;9.90;;;3.20;;
74660;SDS011;63191;39.566;2.654;2022-09-09T16:02:01;6.70;;;2.70;;
74660;SDS011;63191;39.566;2.654;2022-09-09T16:04:28;10.20;;;2.30;;
74660;SDS011;63191;39.566;2.654;2022-09-09T16:07:00;6.80;;;2.00;;
74660;SDS011;63191;39.566;2.654;2022-09-09T16:09:28;6.20;;;2.30;;
74660;SDS011;63191;39.566;2.654;2022-09-09T16:12:01;7.20;;;2.00;;
74660;SDS011;63191;39.566;2.654;2022-09-09T16:14:31;7.50;;;2.40;;
74660;SDS011;63191;39.566;2.654;2022-09-09T16:17:03;7.30;;;2.00;;
74660;SDS011;63191;39.566;2.654;2022-09-09T16:19:29;7.30;;;2.60;;
74660;SDS011;63191;39.566;2.654;2022-09-09T16:21:54;4.70;;;1.80;;
74660;SDS011;63191;39.566;2.654;2022-09-09T16:24:20;5.40;;;1.70;;
74660;SDS011;63191;39.566;2.654;2022-09-09T16:26:48;5.50;;;1.90;;
74660;SDS011;63191;39.566;2.654;2022-09-09T16:29:16;7.20;;;1.80;;
74660;SDS011;63191;39.566;2.654;2022-09-09T16:31:49;7.60;;;2.40;;
74660;SDS011;63191;39.566;2.654;2022-09-09T16:34:16;4.70;;;1.90;;
74660;SDS011;63191;39.566;2.654;2022-09-09T16:36:44;4.90;;;2.00;;
74660;SDS011;63191;39.566;2.654;2022-09-09T16:39:15;4.70;;;1.60;;
74660;SDS011;63191;39.566;2.654;2022-09-09T16:41:44;5.80;;;1.90;;
74660;SDS011;63191;39.566;2.654;2022-09-09T16:44:12;8.10;;;2.50;;
74660;SDS011;63191;39.566;2.654;2022-09-09T16:46:41;6.90;;;1.90;;
74660;SDS011;63191;39.566;2.654;2022-09-09T16:49:10;5.80;;;1.90;;
74660;SDS011;63191;39.566;2.654;2022-09-09T16:51:42;8.80;;;2.30;;
74660;SDS011;63191;39.566;2.654;2022-09-09T16:54:10;7.30;;;2.10;;
74660;SDS011;63191;39.566;2.654;2022-09-09T16:56:41;6.40;;;1.80;;
74660;SDS011;63191;39.566;2.654;2022-09-09T16:59:11;7.90;;;2.10;;
74660;SDS011;63191;39.566;2.654;2022-09-09T17:01:40;7.90;;;2.30;;
74660;SDS011;63191;39.566;2.654;2022-09-09T17:04:16;5.80;;;2.00;;
74660;SDS011;63191;39.566;2.654;2022-09-09T17:06:49;5.20;;;1.90;;
74660;SDS011;63191;39.566;2.654;2022-09-09T17:09:17;6.70;;;2.00;;